Weather observations for the past three days for
Algona
Metric (Imperial)
Date Time (cdt) Wind (kph) Vis. (km) Weather Sky Cond. Temperature (ºC) Relative Humidity Wind Chill (°C) Heat Index (°C) Pressure Precipitation (cm)
Air Dwpt 6 hour altimeter (cm) sea level (mb) 1 hr 3 hr 6 hr
Max. Min.
06 03:15 NW 9 16.09 Fair CLR 2 -5 60% -0 76.1 0.0
06 02:55 NW 9 16.09 Fair CLR 3 -5 56% 1 76.1 0.0
06 02:35 NW 11 16.09 Fair CLR 3 -5 56% 0 76.07 0.0
06 02:15 NW 9 0.00 Fair CLR 4 -5 52% 2 76.07 0.0
06 01:55 NW 11 16.09 Fair CLR 3 -5 56% 0 76.1 0.0
06 01:35 NW 11 16.09 Fair CLR 3 -5 56% 0 76.1 0.0
06 01:15 N 11 16.09 Fair CLR 4 -5 52% 2 76.07 0.0
06 00:55 N 13 16.09 Fair CLR 4 -5 52% 1 76.07 0.0
06 00:35 N 13 16.09 Fair CLR 4 -5 52% 1 76.05 0.0
06 00:15 N 11 16.09 Fair CLR 5 -5 49% 3 76.05 0.0
05 23:55 N 15 16.09 Fair CLR 6 -5 46% 3 76.02 0.0
05 23:35 N 15 16.09 Fair CLR 6 -5 46% 3 76.02 0.0
05 23:15 N 15 16.09 Partly Cloudy SCT075 6 -5 46% 3 76 0.0
05 22:55 N 13 16.09 Mostly Cloudy SCT065 BKN075 6 -6 42% 4 76 0.0
05 22:35 NW 11 16.09 Mostly Cloudy BKN075 6 -6 42% 4 76.02 0.0
05 22:15 NW 9 16.09 Partly Cloudy SCT075 6 -6 42% 4 76 0.0
05 21:55 N 11 16.09 A Few Clouds FEW080 7 -7 37% 5 76 0.0
05 21:35 NW 15 16.09 Mostly Cloudy BKN080 8 -7 34% 6 75.97 0.0
05 21:15 NW 15 16.09 Overcast OVC075 8 -6 37% 6 75.95 0.0
05 20:55 NW 19 16.09 Overcast OVC080 9 -6 34% 7 75.95 0.0
05 20:35 NW 26 16.09 Overcast OVC080 9 -6 34% 6 75.92 0.0
05 20:15 N 28 16.09 Mostly Cloudy BKN080 10 -6 32% 7 75.9 0.0
05 19:55 NW 28 16.09 Mostly Cloudy BKN080 10 -6 32% 7 75.87 0.0
05 19:35 NW 26 16.09 Mostly Cloudy BKN080 10 -6 32% 7 75.87 0.0
05 19:15 NW 26 G 37 16.09 Overcast OVC080 11 -6 30% 75.84 0.0
05 18:55 NW 20 G 33 16.09 Mostly Cloudy BKN075 BKN085 11 -6 30% 75.84 0.0
05 18:35 NW 26 G 37 16.09 Mostly Cloudy BKN070 11 -6 30% 75.82 0.0
05 18:15 N 24 G 33 16.09 Mostly Cloudy BKN075 11 -6 30% 75.82 0.0
05 17:55 NW 22 G 33 16.09 A Few Clouds FEW075 11 -7 28% 75.82 0.0
05 17:35 N 20 G 31 16.09 Partly Cloudy SCT075 11 -6 30% 75.82 0.0
05 17:15 NW 22 G 33 16.09 A Few Clouds FEW070 12 -6 28% 75.82 0.0
05 16:55 NW 22 G 37 16.09 A Few Clouds FEW070 12 -6 28% 75.82 0.0
05 16:35 N 19 G 41 16.09 Mostly Cloudy BKN070 12 -5 30% 75.82 0.0
05 16:15 N 20 G 39 16.09 Partly Cloudy SCT070 11 -6 30% 75.82 0.0
05 15:55 NW 19 G 30 16.09 A Few Clouds FEW070 11 -6 30% 75.82 0.0
05 15:35 NW 20 G 30 16.09 Partly Cloudy SCT070 11 -6 30% 75.82 0.0
05 15:15 NW 28 G 41 16.09 Partly Cloudy SCT070 12 -5 30% 75.84 0.0
05 14:55 NW 22 G 37 16.09 Partly Cloudy SCT070 12 -5 30% 75.84 0.0
05 14:35 N 28 16.09 Mostly Cloudy BKN065 BKN075 12 -5 30% 75.84 0.0
05 14:15 W 20 16.09 Partly Cloudy SCT065 12 -4 33% 75.84 0.0
05 13:55 NW 19 16.09 Mostly Cloudy BKN065 11 -5 32% 75.87 0.0
05 13:35 NW 13 G 28 16.09 Partly Cloudy SCT065 12 -4 33% 75.87 0.0
05 13:15 N 13 G 31 16.09 Partly Cloudy SCT065 11 -5 32% 75.87 0.0
05 12:55 NW 19 G 30 16.09 A Few Clouds FEW060 10 -4 37% 8 75.87 0.0
05 12:35 W 19 G 30 16.09 A Few Clouds FEW060 11 -4 35% 75.9 0.0
05 12:15 NW 17 G 28 16.09 A Few Clouds FEW060 10 -4 37% 8 75.9 0.0
05 11:55 NW 19 16.09 Fair CLR 10 -5 35% 8 75.87 0.0
05 11:35 NW 20 16.09 A Few Clouds FEW060 10 -4 37% 8 75.87 0.0
05 11:15 Vrbl 11 G 26 16.09 A Few Clouds FEW060 9 -4 40% 8 75.87 0.0
05 10:55 NW 19 16.09 A Few Clouds FEW050 9 -3 43% 7 75.87 0.0
05 10:35 NW 19 16.09 Fair CLR 10 -4 37% 8 75.87 0.0
05 10:15 NW 15 G 28 16.09 Fair CLR 10 -4 37% 8 75.84 0.0
05 09:55 NW 19 G 30 16.09 A Few Clouds FEW049 10 -3 40% 8 75.87 0.0
05 09:35 NW 11 16.09 Fair CLR 10 -2 43% 9 75.84 0.0
05 09:15 NW 13 16.09 Fair CLR 9 -1 50% 7 75.82 0.0
05 08:55 N 9 16.09 Fair CLR 8 -2 50% 7 75.82 0.0
05 08:15 N 15 16.09 Fair CLR 8 -2 50% 6 75.79 0.0
05 07:55 NW 9 16.09 Fair CLR 7 -2 53% 5 75.79 0.0
05 07:35 NW 11 16.09 Fair CLR 6 -1 61% 4 75.79 0.0
05 07:15 W 9 16.09 Fair CLR 4 -2 65% 2 75.77 0.0
05 06:55 W 7 16.09 Fair CLR 3 -2 70% 1 75.77 0.0
05 06:35 SW 9 14.48 Fair CLR 1 -3 75% -2 75.74 0.0
05 06:15 Calm 16.09 Fair CLR 1 -4 70% 75.72 0.0
05 05:55 W 6 16.09 Fair CLR 2 -4 65% 75.69 0.0
05 05:35 W 11 16.09 Fair CLR 2 -4 65% -1 75.67 0.0
05 04:55 NW 13 16.09 Fair CLR 3 -4 60% 0 75.64 0.0
05 04:35 NW 13 16.09 Fair CLR 4 -4 56% 1 75.64 0.0
05 04:15 NW 15 16.09 Fair CLR 5 -4 53% 2 75.64 0.0
05 03:55 NW 13 16.09 Fair CLR 6 -4 49% 4 75.64 0.0
05 03:35 NW 15 16.09 Fair CLR 6 -4 49% 3 75.62 0.0
05 03:15 NW 17 16.09 Fair CLR 6 -4 49% 3 75.62 0.0
05 02:55 NW 11 16.09 Fair CLR 5 -4 53% 3 75.62 0.0
05 02:35 W 11 16.09 Fair CLR 5 -3 57% 3 75.62 0.0
05 02:15 NW 11 16.09 Fair CLR 6 -3 53% 4 75.62 0.0
05 01:55 NW 9 16.09 Fair CLR 7 -3 49% 5 75.59 0.0
05 01:35 NW 9 16.09 Fair CLR 8 -3 46% 7 75.59 0.0
05 01:15 NW 9 16.09 Fair CLR 8 -3 46% 7 75.59 0.0
05 00:55 NW 9 16.09 Fair CLR 8 -3 46% 7 75.62 0.0
05 00:35 N 9 16.09 Fair CLR 8 -3 46% 7 75.59 0.0
05 00:15 N 11 16.09 Fair CLR 8 -3 46% 6 75.59 0.0
04 23:55 N 11 16.09 Fair CLR 9 -3 43% 8 75.59 0.0
04 23:35 N 13 16.09 Fair CLR 9 -4 40% 7 75.59 0.0
04 23:15 N 11 16.09 Fair CLR 9 -4 40% 8 75.59 0.0
04 22:55 N 17 16.09 Fair CLR 10 -4 37% 8 75.59 0.0
04 22:15 N 17 16.09 Fair CLR 11 -3 38% 75.57 0.0
04 21:55 NW 19 G 28 16.09 Fair CLR 11 -3 38% 75.57 0.0
04 21:35 NW 20 G 31 16.09 Fair CLR 11 -3 38% 75.57 0.0
04 21:15 NW 24 G 35 16.09 Fair CLR 11 -3 38% 75.54 0.0
04 20:55 NW 26 G 39 16.09 A Few Clouds FEW110 12 -3 35% 75.51 0.0
04 20:35 NW 35 G 50 16.09 Fair and Breezy CLR 12 -2 38% 75.49 0.0
04 20:15 NW 33 G 46 16.09 Fair and Breezy CLR 13 -2 36% 75.44 0.0
04 19:55 N 31 G 41 16.09 Fair CLR 13 -2 36% 75.41 0.0
04 18:55 NW 37 G 50 16.09 Fair and Breezy CLR 15 -2 31% 75.36 0.0
04 18:35 NW 31 G 44 16.09 Fair CLR 15 -3 29% 75.34 0.0
04 18:15 NW 39 G 48 16.09 Fair and Breezy CLR 16 -3 27% 75.34 0.0
04 17:55 NW 31 G 44 16.09 Fair CLR 15 0 36% 75.34 0.0
04 17:35 NW 46 G 59 16.09 Fair and Windy CLR 15 0 36% 75.34 0.0
04 17:15 NW 33 G 52 16.09 Fair and Breezy CLR 17 -2 27% 75.31 0.0
04 16:55 NW 37 G 54 16.09 Fair and Breezy CLR 17 -3 25% 75.26 0.0
04 16:35 NW 35 G 57 16.09 Fair and Breezy CLR 19 -3 22% 75.23 0.0
04 16:15 NW 37 G 52 16.09 Fair and Breezy CLR 19 -2 24% 75.21 0.0
04 15:55 N 37 G 50 16.09 Fair and Breezy CLR 19 -1 26% 75.18 0.0
04 15:35 NW 39 G 56 16.09 Fair and Breezy CLR 20 -1 24% 75.18 0.0
04 15:15 NW 39 G 56 16.09 Fair and Breezy CLR 20 -1 24% 75.18 0.0
04 14:55 NW 31 G 48 16.09 Fair CLR 20 -2 23% 75.16 0.0
04 14:35 NW 37 G 54 16.09 Fair and Breezy CLR 20 0 26% 75.16 0.0
04 13:55 NW 33 G 54 16.09 Fair and Breezy CLR 20 -1 24% 75.13 0.0
04 13:35 NW 35 G 48 16.09 Fair and Breezy CLR 20 0 26% 75.13 0.0
04 13:15 NW 28 G 46 16.09 Fair CLR 21 0 25% 75.11 0.0
04 12:55 N 30 G 43 14.48 Fair CLR 20 0 26% 75.08 0.0
04 12:35 NW 31 G 41 16.09 Fair CLR 20 0 26% 75.08 0.0
04 12:15 N 22 G 33 16.09 Fair CLR 20 1 28% 75.08 0.0
04 11:35 N 30 14.48 Fair CLR 20 4 35% 75.06 0.0
04 11:15 NW 20 G 44 16.09 Fair CLR 20 5 38% 75.06 0.0
04 10:55 NW 22 G 37 16.09 Fair CLR 20 5 38% 75.06 0.0
04 10:35 NW 28 G 46 16.09 Fair CLR 20 5 38% 75.03 0.0
04 10:15 NW 33 G 43 16.09 Fair and Breezy CLR 21 5 35% 75.01 0.0
04 09:55 NW 33 G 52 16.09 Fair and Breezy CLR 21 5 35% 75.01 0.0
04 09:35 W 43 G 56 16.09 Fair and Windy CLR 21 4 33% 75.01 0.0
04 09:15 W 39 G 50 14.48 Fair and Breezy CLR 21 4 33% 74.98 0.0
04 08:55 SW 39 16.09 Fair and Breezy CLR 20 4 35% 74.98 0.0
04 08:35 SW 35 16.09 Fair and Breezy CLR 18 4 40% 74.98 0.0
04 08:15 SW 30 16.09 Fair CLR 17 4 42% 75.01 0.0
04 07:55 SW 28 16.09 Fair CLR 14 3 48% 75.01 0.0
04 07:35 SW 26 16.09 Fair CLR 13 3 51% 75.01 0.0
04 07:15 SW 24 16.09 Fair CLR 12 3 54% 75.01 0.0
04 06:55 SW 19 16.09 A Few Clouds FEW100 10 3 62% 8 75.01 0.0
04 06:35 SW 17 16.09 Fair CLR 10 2 58% 8 75.01 0.0
04 06:15 SW 19 16.09 A Few Clouds FEW100 10 2 58% 8 75.01 0.0
04 05:55 SW 19 16.09 Fair CLR 9 2 62% 7 75.03 0.0
04 05:35 SW 19 0.00 Fair CLR 9 2 62% 7 75.06 0.0
04 05:15 SW 20 16.09 Fair CLR 10 1 54% 8 75.06 0.0
04 04:55 SW 20 G 31 16.09 Fair CLR 10 1 54% 8 75.08 0.0
04 04:35 SW 22 16.09 Fair CLR 10 1 54% 7 75.08 0.0
04 04:15 SW 22 16.09 Fair CLR 9 1 58% 6 75.11 0.0
04 03:55 SW 19 16.09 Fair CLR 9 1 58% 7 75.13 0.0
04 03:35 SW 17 16.09 Fair CLR 10 1 54% 8 75.16 0.0
04 03:15 SW 19 16.09 Fair CLR 10 1 54% 8 75.16 0.0
04 02:55 SW 17 16.09 Fair CLR 9 1 58% 7 75.16 0.0
04 02:35 SW 19 16.09 Fair CLR 10 1 54% 8 75.18 0.0
04 02:15 SW 19 16.09 Fair CLR 10 1 54% 8 75.23 0.0
04 01:55 SW 20 16.09 Fair CLR 11 1 50% 75.23 0.0
04 01:35 S 20 16.09 Fair CLR 10 1 54% 8 75.26 0.0
04 01:15 SW 20 16.09 Fair CLR 11 1 50% 75.29 0.0
04 00:55 SW 17 16.09 Fair CLR 11 1 50% 75.29 0.0
04 00:35 S 17 16.09 Fair CLR 10 1 54% 8 75.31 0.0
04 00:15 SW 17 16.09 Fair CLR 11 1 50% 75.34 0.0
03 23:55 SW 9 16.09 Fair CLR 11 1 50% 75.36 0.0
03 23:35 SW 15 16.09 Fair CLR 12 0 44% 75.39 0.0
03 23:15 W 13 16.09 Fair CLR 12 0 44% 75.41 0.0
03 22:55 W 13 16.09 Fair CLR 12 0 44% 75.44 0.0
03 22:35 W 11 16.09 Fair CLR 12 0 44% 75.46 0.0
03 22:15 SW 13 16.09 Fair CLR 12 0 44% 75.46 0.0
03 21:55 W 11 16.09 Fair CLR 13 0 41% 75.46 0.0
03 21:35 W 17 16.09 Fair CLR 14 -1 36% 75.46 0.0
03 21:15 W 13 16.09 Fair CLR 14 -1 36% 75.46 0.0
03 20:55 W 11 16.09 Fair CLR 15 -1 34% 75.46 0.0
03 20:35 W 13 16.09 Fair CLR 16 -1 31% 75.46 0.0
03 20:15 W 13 14.48 Fair CLR 18 0 30% 75.46 0.0
03 19:55 W 13 16.09 Fair CLR 20 1 28% 75.46 0.0
03 19:35 W 19 8.05 Fair with Haze CLR 20 1 28% 75.46 0.0
03 19:15 W 13 G 26 11.27 Fair CLR 21 0 25% 75.46 0.0
03 18:55 W 19 16.09 Fair CLR 22 0 23% 75.49 0.0
03 18:35 NW 20 G 30 16.09 Fair CLR 22 0 23% 75.49 0.0
03 18:15 NW 13 G 30 16.09 Fair CLR 22 -2 20% 75.51 0.0
03 17:35 NW 24 G 35 16.09 Fair CLR 22 -2 20% 75.54 0.0
03 17:15 NW 19 G 30 16.09 Fair CLR 22 0 23% 75.54 0.0
03 16:55 NW 24 16.09 Fair CLR 22 -1 22% 75.54 0.0
03 16:35 NW 24 G 43 16.09 Fair CLR 22 -1 22% 75.54 0.0
03 16:15 NW 20 G 31 16.09 Fair CLR 22 0 23% 75.57 0.0
03 15:55 NW 31 G 43 16.09 Fair CLR 22 0 23% 75.57 0.0
03 15:35 NW 22 16.09 Fair CLR 22 0 23% 75.59 0.0
03 15:15 NW 24 G 39 16.09 Fair CLR 21 0 25% 75.59 0.0
03 14:55 N 28 G 50 16.09 Fair CLR 21 0 25% 75.62 0.0
03 14:35 N 26 G 44 16.09 Fair CLR 21 0 25% 75.62 0.0
03 14:15 N 28 G 48 16.09 Fair CLR 21 0 25% 75.62 0.0
03 13:55 N 39 G 50 16.09 Fair and Breezy CLR 21 0 25% 75.59 0.0
03 13:35 N 35 G 48 16.09 Fair and Breezy CLR 21 0 25% 75.62 0.0
03 13:15 NW 31 G 44 16.09 Fair CLR 21 0 25% 75.64 0.0
03 12:55 NW 35 G 48 16.09 Fair and Breezy CLR 20 1 28% 75.64 0.0
03 12:35 N 26 G 54 14.48 Fair CLR 20 1 28% 75.64 0.0
03 12:15 N 28 G 46 14.48 Fair CLR 20 1 28% 75.67 0.0
03 11:55 NW 39 G 56 14.48 Fair and Breezy CLR 20 1 28% 75.64 0.0
03 11:35 N 39 G 54 16.09 Fair and Breezy CLR 20 2 30% 75.64 0.0
03 11:15 N 39 G 50 16.09 Fair and Breezy CLR 19 2 32% 75.64 0.0
03 10:55 N 33 G 46 16.09 Fair and Breezy CLR 18 2 34% 75.64 0.0
03 10:35 NW 41 G 54 16.09 Fair and Breezy CLR 18 2 34% 75.64 0.0
03 10:15 N 31 G 52 16.09 Fair CLR 17 2 37% 75.64 0.0
03 09:55 N 37 G 50 16.09 Fair and Breezy CLR 17 2 37% 75.62 0.0
03 09:35 N 37 G 52 16.09 Fair and Breezy CLR 16 2 39% 75.62 0.0
03 09:15 NW 35 G 44 16.09 Fair and Breezy CLR 15 2 42% 75.62 0.0
03 08:55 NW 30 G 41 16.09 Fair CLR 14 2 44% 75.59 0.0
03 08:35 NW 26 G 39 16.09 Fair CLR 14 2 44% 75.59 0.0
03 08:15 NW 24 G 35 16.09 Fair CLR 14 2 44% 75.57 0.0
03 07:55 NW 19 16.09 Fair CLR 12 2 51% 75.57 0.0
03 07:35 W 22 16.09 Fair CLR 11 2 54% 75.54 0.0
03 07:15 W 19 16.09 Fair CLR 10 1 54% 8 75.51 0.0
03 06:55 SW 15 16.09 Fair CLR 9 0 54% 7 75.51 0.0
03 06:35 SW 19 16.09 Fair CLR 9 0 54% 7 75.49 0.0
03 06:15 SW 19 16.09 Fair CLR 9 0 54% 7 75.51 0.0
03 05:55 SW 20 G 31 16.09 Fair CLR 10 0 50% 8 75.49 0.0
03 05:35 SW 26 G 35 16.09 Fair CLR 11 0 47% 75.49 0.0
03 05:15 SW 24 G 33 16.09 Fair CLR 12 0 44% 75.51 0.0
03 04:55 SW 33 16.09 Fair and Breezy CLR 13 0 41% 75.51 0.0
03 04:35 SW 28 16.09 Fair CLR 13 0 41% 75.51 0.0
03 04:15 SW 22 16.09 Fair CLR 11 0 47% 75.54 0.0
03 03:55 S 20 16.09 Fair CLR 11 0 47% 75.54 0.0
03 03:35 S 22 16.09 Fair CLR 11 0 47% 75.54 0.0
Date Time (cdt) Wind (kph) Vis. (km) Weather Sky Cond. Air Dwpt Max. Min. Relative Humidity Wind Chill (°C) Heat Index (°C) altimeter (cm) sea level (mb) 1 hr 3 hr 6 hr
6 hour
Temperature (ºC) Pressure Precipitation (cm)